Weather at Royal Marines Base Chivenor Airport

Public forecast

Using degrees Celsius for public forecast. Weather courtesy of forecast.io.

Closest aviation weather report (METAR) to Royal Marines Base Chivenor Airport

Report is more than 6 hours old.

Closest report is St. Athan Airport, 32.9 nm (61.0 km) NE. Retrieved 2021/07/30 15:50 UTC (14 hours ago):

EGSY 301550Z 28016KT 9999 SCT021 BKN045 17/12 Q1006

Closest aviation forecast (TAF) to Royal Marines Base Chivenor Airport

Forecast is more than 12 hours old.

Closest forecast is Exeter International Airport, 35.0 nm (64.8 km) SE. Retrieved 2012/04/19 12:15 UTC (9 years ago):

TAF TAF EGTE 191401Z 1912/1924 31016KT 9999 SCT030 SCT035 PROB40 TEMPO 1915/1918 7000 SHRA BKN014